Time;durP1;ratioP1;P1;durP2;ratioP2;P2;SDS_P1;SDS_P2;PMS_P1;PMS_P2;Temp;Humidity;BMP_temperature;BMP_pressure;BME280_temperature;BME280_humidity;BME280_pressure;Samples;Min_cycle;Max_cycle;Signal;HPM_P1;HPM_P2
2022/11/06 00:01:15;;;;;;;5.03;1.13;;;;;;;;;;4983985;28;20037;-91
2022/11/06 00:03:44;;;;;;;4.05;1.00;;;;;;;;;;4981321;28;20033;-91
2022/11/06 00:09:01;;;;;;;5.68;1.20;;;;;;;;;;5002089;28;20045;-89
2022/11/06 00:11:27;;;;;;;3.70;0.95;;;;;;;;;;4982420;28;20026;-91
2022/11/06 00:13:53;;;;;;;8.90;1.50;;;;;;;;;;4980607;28;20031;-90
2022/11/06 00:16:19;;;;;;;5.20;1.45;;;;;;;;;;4983436;28;20022;-92
2022/11/06 00:18:46;;;;;;;5.00;0.70;;;;;;;;;;4980764;28;20023;-90
2022/11/06 00:21:14;;;;;;;3.05;1.02;;;9.90;99.90;;;;;;4980733;28;20038;-93
2022/11/06 00:23:40;;;;;;;6.38;1.10;;;;;;;;;;4981067;28;20037;-92
2022/11/06 00:26:07;;;;;;;7.55;1.30;;;9.90;99.90;;;;;;4982606;28;20126;-90
2022/11/06 00:28:33;;;;;;;4.80;1.05;;;;;;;;;;4980515;28;20037;-90
2022/11/06 00:31:00;;;;;;;8.68;1.48;;;;;;;;;;4998135;28;20113;-89
2022/11/06 00:33:26;;;;;;;3.85;0.43;;;;;;;;;;4981718;28;20030;-91
2022/11/06 00:35:52;;;;;;;6.65;0.90;;;;;;;;;;4980466;28;20026;-89
2022/11/06 00:38:18;;;;;;;2.70;0.57;;;;;;;;;;4979745;28;20440;-89
2022/11/06 00:40:47;;;;;;;3.97;1.08;;;;;;;;;;4981478;28;20235;-90
2022/11/06 00:43:13;;;;;;;7.22;0.95;;;;;;;;;;4983502;28;20533;-89
2022/11/06 00:45:39;;;;;;;7.03;0.90;;;;;;;;;;4980589;28;20030;-90
2022/11/06 00:48:05;;;;;;;4.40;0.60;;;;;;;;;;4981420;28;20380;-91
2022/11/06 00:50:32;;;;;;;6.43;0.75;;;;;;;;;;4981519;28;20030;-92
2022/11/06 00:52:58;;;;;;;6.20;0.88;;;;;;;;;;4981131;28;20042;-88
2022/11/06 00:55:27;;;;;;;2.85;0.80;;;;;;;;;;4982071;28;20034;-92
2022/11/06 00:57:56;;;;;;;5.28;0.80;;;;;;;;;;4981768;28;20022;-92
2022/11/06 01:00:21;;;;;;;;;;;9.90;99.90;;;;;;4982699;28;20109;-91
2022/11/06 01:02:47;;;;;;;5.22;1.35;;;;;;;;;;4982578;28;19929;-91
2022/11/06 01:05:13;;;;;;;6.18;1.08;;;;;;;;;;4980218;28;20081;-89
2022/11/06 01:07:40;;;;;;;9.18;1.58;;;;;;;;;;4980394;28;20499;-91
2022/11/06 01:10:07;;;;;;;6.05;1.38;;;;;;;;;;4981175;28;20399;-90
2022/11/06 01:12:34;;;;;;;4.15;0.90;;;;;;;;;;4981112;28;20027;-91
2022/11/06 01:15:00;;;;;;;4.93;0.90;;;;;;;;;;4981918;28;20026;-90
2022/11/06 01:17:27;;;;;;;5.05;1.13;;;;;;;;;;4986071;28;20380;-88
2022/11/06 01:19:53;;;;;;;5.13;1.00;;;;;;;;;;4984216;28;20034;-92
2022/11/06 01:22:19;;;;;;;7.53;0.88;;;;;;;;;;4983197;28;20045;-91
2022/11/06 01:24:45;;;;;;;8.50;1.35;;;;;;;;;;4982497;28;20033;-90
2022/11/06 01:27:11;;;;;;;5.78;0.90;;;;;;;;;;4980200;28;20483;-90
2022/11/06 01:29:37;;;;;;;5.55;1.38;;;;;;;;;;4980692;28;20026;-89
2022/11/06 01:32:03;;;;;;;3.28;1.45;;;9.90;99.90;;;;;;4980110;28;20081;-89
2022/11/06 01:34:29;;;;;;;9.25;1.30;;;;;;;;;;4980969;28;20391;-88
2022/11/06 01:36:55;;;;;;;3.78;0.82;;;;;;;;;;4980609;28;20546;-89
2022/11/06 01:39:21;;;;;;;3.05;1.27;;;;;;;;;;4980446;28;20113;-89
2022/11/06 01:41:49;;;;;;;3.55;1.15;;;9.90;99.90;;;;;;4979778;28;20061;-90
2022/11/06 01:44:34;;;;;;;6.80;0.88;;;10.00;99.90;;;;;;4980559;28;20026;-89
2022/11/06 01:47:01;;;;;;;1.88;0.63;;;;;;;;;;4979470;28;20041;-91
2022/11/06 01:49:32;;;;;;;8.10;1.60;;;10.00;99.90;;;;;;4979206;28;20061;-90
2022/11/06 01:52:00;;;;;;;4.90;1.05;;;;;;;;;;4981206;28;20019;-89
2022/11/06 01:54:27;;;;;;;4.77;1.00;;;;;;;;;;4981311;28;20026;-90
2022/11/06 01:56:54;;;;;;;5.97;0.50;;;;;;;;;;4979154;28;20285;-91
2022/11/06 01:59:21;;;;;;;2.92;1.15;;;;;;;;;;4981052;28;20482;-90
2022/11/06 02:01:47;;;;;;;8.35;1.00;;;;;;;;;;4980700;28;20034;-90
2022/11/06 02:04:22;;;;;;;4.78;1.00;;;10.00;99.90;;;;;;4978465;28;20045;-92
2022/11/06 02:06:48;;;;;;;3.47;0.80;;;;;;;;;;4979931;28;20026;-89
2022/11/06 02:09:15;;;;;;;5.22;0.80;;;10.10;99.90;;;;;;4978970;28;20034;-90
2022/11/06 02:12:00;;;;;;;5.65;0.70;;;10.00;99.90;;;;;;4996923;28;20563;-92
2022/11/06 02:14:42;;;;;;;2.05;0.52;;;;;;;;;;4980082;28;20023;-92
2022/11/06 02:17:15;;;;;;;8.48;0.68;;;;;;;;;;4979977;28;20025;-90
2022/11/06 02:19:52;;;;;;;6.18;0.65;;;10.10;99.90;;;;;;4978479;28;20027;-89
2022/11/06 02:22:49;;;;;;;4.65;1.40;;;10.10;99.90;;;;;;4979496;28;20030;-89
2022/11/06 02:25:21;;;;;;;4.50;0.40;;;;;;;;;;4978518;28;20030;-91
2022/11/06 02:28:09;;;;;;;6.43;0.68;;;10.10;99.90;;;;;;4979517;28;20472;-89
2022/11/06 02:30:37;;;;;;;5.00;0.52;;;;;;;;;;4980598;28;20096;-88
2022/11/06 02:33:08;;;;;;;6.40;0.57;;;10.10;99.90;;;;;;4979867;28;20030;-88
2022/11/06 02:35:34;;;;;;;6.72;0.60;;;;;;;;;;4978965;28;20072;-90
2022/11/06 02:38:12;;;;;;;3.28;0.68;;;10.10;99.90;;;;;;4980155;28;20034;-89
2022/11/06 02:40:54;;;;;;;4.80;0.85;;;10.10;99.90;;;;;;4981939;28;20027;-90
2022/11/06 02:43:21;;;;;;;8.40;0.82;;;;;;;;;;4982110;28;20037;-88
2022/11/06 02:45:55;;;;;;;4.68;1.38;;;;;;;;;;4980443;28;20030;-89
2022/11/06 02:48:24;;;;;;;7.93;0.88;;;;;;;;;;4980524;28;20038;-91
2022/11/06 02:50:52;;;;;;;4.43;0.95;;;10.10;99.90;;;;;;4980131;28;20026;-89
2022/11/06 02:53:20;;;;;;;7.93;1.02;;;;;;;;;;4980564;28;20018;-94
2022/11/06 02:55:49;;;;;;;6.23;0.50;;;;;;;;;;4982307;28;20026;-88
2022/11/06 02:58:28;;;;;;;5.23;0.83;;;10.10;99.90;;;;;;4982147;28;20281;-90
2022/11/06 03:01:06;;;;;;;5.97;0.57;;;10.10;99.90;;;;;;4980204;28;20058;-89
2022/11/06 03:03:34;;;;;;;2.78;0.20;;;;;;;;;;4979592;28;20037;-88
2022/11/06 03:06:08;;;;;;;5.00;0.30;;;10.10;99.90;;;;;;4982540;28;20045;-88
2022/11/06 03:08:46;;;;;;;4.45;0.73;;;10.10;99.90;;;;;;4981624;28;20026;-92
2022/11/06 03:11:15;;;;;;;6.07;0.98;;;;;;;;;;4981552;28;20050;-91
2022/11/06 03:14:05;;;;;;;4.65;0.30;;;10.10;99.90;;;;;;4983653;28;20081;-92
2022/11/06 03:16:41;;;;;;;12.45;1.10;;;;;;;;;;4981298;28;20022;-92
2022/11/06 03:19:21;;;;;;;8.10;0.50;;;;;;;;;;4981824;28;20090;-92
2022/11/06 03:22:03;;;;;;;4.28;0.30;;;10.10;99.90;;;;;;4986535;28;20042;-90
2022/11/06 03:24:49;;;;;;;5.45;0.60;;;10.10;99.90;;;;;;4985501;28;20030;-90
2022/11/06 03:27:38;;;;;;;1.77;0.60;;;10.20;99.90;;;;;;4984631;28;20027;-92
2022/11/06 03:30:15;;;;;;;6.38;0.70;;;10.10;99.90;;;;;;4982111;28;20035;-91
2022/11/06 03:32:41;;;;;;;6.32;1.10;;;;;;;;;;4980203;28;20022;-91
2022/11/06 03:35:16;;;;;;;7.85;1.33;;;;;;;;;;4978996;28;20025;-90
2022/11/06 03:37:50;;;;;;;9.25;1.05;;;10.10;99.90;;;;;;4980810;28;20022;-92
2022/11/06 03:40:19;;;;;;;4.57;0.57;;;10.10;99.90;;;;;;4980146;28;20035;-91
2022/11/06 03:42:47;;;;;;;5.65;0.63;;;;;;;;;;4979163;28;20026;-90
2022/11/06 03:45:16;;;;;;;3.03;0.70;;;;;;;;;;4981586;28;20061;-92
2022/11/06 03:47:48;;;;;;;4.53;0.75;;;10.10;99.90;;;;;;4981676;28;20030;-91
2022/11/06 03:50:22;;;;;;;8.00;0.80;;;;;;;;;;4981055;28;20026;-91
2022/11/06 03:52:57;;;;;;;4.68;1.27;;;10.10;99.90;;;;;;4981589;28;20022;-91
2022/11/06 03:55:38;;;;;;;6.53;0.82;;;10.10;99.90;;;;;;4982905;28;20384;-89
2022/11/06 03:58:11;;;;;;;4.13;0.50;;;10.20;99.90;;;;;;4985061;28;20030;-91
2022/11/06 04:00:40;;;;;;;5.88;0.60;;;10.20;99.90;;;;;;4984097;28;20030;-89
2022/11/06 04:03:13;;;;;;;5.65;1.15;;;10.10;99.90;;;;;;4982953;28;20484;-90
2022/11/06 04:05:41;;;;;;;5.53;0.70;;;;;;;;;;4981882;28;20138;-90
2022/11/06 04:14:00;;;;;;;4.10;0.45;;;10.20;99.90;;;;;;5000589;28;20033;-90
2022/11/06 04:16:32;;;;;;;7.40;0.20;;;10.20;99.90;;;;;;5001077;28;20353;-90
2022/11/06 04:19:03;;;;;;;3.50;0.30;;;;;;;;;;4981597;28;20026;-90
2022/11/06 04:22:23;;;;;;;4.05;0.60;;;10.20;99.90;;;;;;4982114;28;20038;-90
2022/11/06 04:27:52;;;;;;;8.13;0.90;;;;;;;;;;4998323;28;20045;-92
2022/11/06 04:30:18;;;;;;;4.43;0.40;;;;;;;;;;4981006;28;20061;-92
2022/11/06 04:33:04;;;;;;;4.82;0.65;;;10.20;99.90;;;;;;4980882;28;20113;-90
2022/11/06 04:35:40;;;;;;;4.10;0.10;;;10.20;99.90;;;;;;4981182;28;20023;-91
2022/11/06 04:38:15;;;;;;;6.53;0.35;;;;;;;;;;4979934;28;20026;-92
2022/11/06 04:40:51;;;;;;;5.28;0.32;;;;;;;;;;4980400;28;20038;-89
2022/11/06 04:43:42;;;;;;;5.30;0.47;;;10.30;99.90;;;;;;4980690;28;20030;-91
2022/11/06 04:46:12;;;;;;;8.30;0.85;;;10.30;99.90;;;;;;4980594;28;20030;-91
2022/11/06 04:48:39;;;;;;;10.05;0.28;;;10.30;99.90;;;;;;4980256;28;20064;-90
2022/11/06 04:51:09;;;;;;;2.35;0.30;;;10.30;99.90;;;;;;4981432;28;20030;-91
2022/11/06 04:53:42;;;;;;;2.92;0.22;;;10.30;99.90;;;;;;4981635;28;20101;-90
2022/11/06 04:56:12;;;;;;;1.33;0.55;;;;;;;;;;4993145;28;20027;-89
2022/11/06 04:58:39;;;;;;;9.57;0.57;;;10.30;99.90;;;;;;5003560;28;20018;-90
2022/11/06 05:01:08;;;;;;;3.45;0.30;;;;;;;;;;4987057;28;20033;-91
2022/11/06 05:03:37;;;;;;;3.55;0.20;;;;;;;;;;4980708;28;20035;-90
2022/11/06 05:06:03;;;;;;;3.42;0.38;;;;;;;;;;4980286;28;20022;-92
2022/11/06 05:08:29;;;;;;;3.08;0.10;;;10.30;99.90;;;;;;4980658;28;20057;-89
2022/11/06 05:10:57;;;;;;;9.70;0.60;;;10.30;99.90;;;;;;4980270;28;20026;-91
2022/11/06 05:13:23;;;;;;;8.63;0.22;;;;;;;;;;4980233;28;20022;-90
2022/11/06 05:15:49;;;;;;;6.70;0.13;;;;;;;;;;4980262;28;20026;-90
2022/11/06 05:18:15;;;;;;;3.65;0.90;;;;;;;;;;4979577;28;20030;-93
2022/11/06 05:20:44;;;;;;;4.00;0.50;;;;;;;;;;4980157;28;20451;-93
2022/11/06 05:23:10;;;;;;;5.05;0.38;;;;;;;;;;4980430;28;20438;-92
2022/11/06 05:25:38;;;;;;;3.33;0.38;;;10.40;99.90;;;;;;4981823;28;20026;-90
2022/11/06 05:28:06;;;;;;;0.70;0.20;;;10.40;99.90;;;;;;4980122;28;20241;-90
2022/11/06 05:30:32;;;;;;;2.65;0.10;;;;;;;;;;4979314;28;20030;-90
2022/11/06 05:33:00;;;;;;;6.28;0.60;;;;;;;;;;4980791;28;20463;-90
2022/11/06 05:35:26;;;;;;;3.83;0.13;;;10.50;99.90;;;;;;4979456;28;20018;-90
2022/11/06 05:37:57;;;;;;;5.13;0.40;;;;;;;;;;4982759;28;20022;-89
2022/11/06 05:40:23;;;;;;;4.97;0.28;;;;;;;;;;4979165;28;20026;-89
2022/11/06 05:42:49;;;;;;;3.78;0.00;;;;;;;;;;4979321;28;20089;-89
2022/11/06 05:45:15;;;;;;;3.22;0.20;;;;;;;;;;4978630;28;20039;-89
2022/11/06 05:47:42;;;;;;;3.30;0.40;;;;;;;;;;4979155;28;20030;-92
2022/11/06 05:50:14;;;;;;;2.08;0.30;;;10.40;99.90;;;;;;4979838;28;20098;-90
2022/11/06 05:52:40;;;;;;;4.25;0.43;;;;;;;;;;4979640;28;20085;-89
2022/11/06 05:55:06;;;;;;;2.95;0.03;;;10.30;99.90;;;;;;4978612;28;20046;-89
2022/11/06 05:57:33;;;;;;;8.88;0.40;;;;;;;;;;4979769;28;20072;-91
2022/11/06 05:59:59;;;;;;;4.05;0.38;;;;;;;;;;4981559;28;20026;-92
2022/11/06 06:02:24;;;;;;;4.85;0.32;;;;;;;;;;4980349;28;20484;-92
2022/11/06 06:04:51;;;;;;;3.53;0.52;;;;;;;;;;4979966;28;20030;-89
2022/11/06 06:07:16;;;;;;;10.77;1.67;;;;;;;;;;4978610;28;20037;-90
2022/11/06 06:09:42;;;;;;;6.18;0.30;;;;;;;;;;4978670;28;20504;-89
2022/11/06 06:12:11;;;;;;;3.45;0.20;;;10.20;99.90;;;;;;4978181;28;20568;-91
2022/11/06 06:14:37;;;;;;;4.43;0.50;;;;;;;;;;4978286;28;20049;-89
2022/11/06 06:17:03;;;;;;;5.65;0.63;;;;;;;;;;4978013;28;20026;-91
2022/11/06 06:19:29;;;;;;;1.63;0.70;;;;;;;;;;4995519;28;20029;-91
2022/11/06 06:21:55;;;;;;;2.67;0.38;;;;;;;;;;4980152;28;20034;-89
2022/11/06 06:24:21;;;;;;;3.40;0.30;;;;;;;;;;4979476;28;20037;-92
2022/11/06 06:26:47;;;;;;;8.52;0.63;;;;;;;;;;4980922;28;20101;-89
2022/11/06 06:29:13;;;;;;;4.80;0.93;;;;;;;;;;4980977;28;20029;-92
2022/11/06 06:31:39;;;;;;;2.25;0.28;;;;;;;;;;4978116;28;20035;-90
2022/11/06 06:34:05;;;;;;;3.72;0.22;;;;;;;;;;4979987;28;20491;-90
2022/11/06 06:36:34;;;;;;;4.38;0.10;;;;;;;;;;4981768;28;20022;-91
2022/11/06 06:39:00;;;;;;;;;;;10.10;99.90;;;;;;4981282;28;20031;-91
2022/11/06 06:41:26;;;;;;;7.70;0.52;;;;;;;;;;4980444;28;19960;-89
2022/11/06 06:43:53;;;;;;;7.32;0.85;;;;;;;;;;4979981;28;20030;-92
2022/11/06 06:46:19;;;;;;;4.38;0.28;;;;;;;;;;4980187;28;20033;-91
2022/11/06 06:48:45;;;;;;;2.83;0.80;;;;;;;;;;4980360;28;20038;-91
2022/11/06 06:51:14;;;;;;;5.57;0.20;;;;;;;;;;4981797;28;20064;-90
2022/11/06 06:53:43;;;;;;;3.80;0.28;;;;;;;;;;4982512;28;20084;-91
2022/11/06 06:56:09;;;;;;;2.45;0.52;;;;;;;;;;4981896;28;20034;-90
2022/11/06 06:58:35;;;;;;;9.10;0.30;;;;;;;;;;4982436;28;20033;-91
2022/11/06 07:01:02;;;;;;;3.08;0.60;;;;;;;;;;4979858;28;20022;-90
2022/11/06 07:03:29;;;;;;;4.53;0.10;;;;;;;;;;4980125;28;20571;-92
2022/11/06 07:05:57;;;;;;;3.03;0.13;;;10.10;99.90;;;;;;4980844;28;20030;-89
2022/11/06 07:08:23;;;;;;;3.85;0.52;;;;;;;;;;4980656;28;20373;-92
2022/11/06 07:10:52;;;;;;;2.33;0.40;;;;;;;;;;4982163;28;20022;-91
2022/11/06 07:13:18;;;;;;;5.88;0.57;;;;;;;;;;4981103;28;20098;-92
2022/11/06 07:15:44;;;;;;;3.28;0.68;;;;;;;;;;4980503;28;20030;-91
2022/11/06 07:18:10;;;;;;;5.85;0.30;;;;;;;;;;4980298;28;20023;-92
2022/11/06 07:20:38;;;;;;;4.32;0.52;;;;;;;;;;4991606;23;20486;-90
2022/11/06 07:23:08;;;;;;;4.85;0.73;;;10.10;99.90;;;;;;4999295;28;20117;-92
2022/11/06 07:25:35;;;;;;;1.05;0.10;;;10.10;99.90;;;;;;4999443;28;20018;-90
2022/11/06 07:28:05;;;;;;;2.28;0.28;;;;;;;;;;4998816;28;20029;-91
2022/11/06 07:30:32;;;;;;;3.88;1.10;;;;;;;;;;4998797;28;20427;-89
2022/11/06 07:33:07;;;;;;;5.97;0.50;;;10.10;99.90;;;;;;5000266;28;20438;-89
2022/11/06 07:35:34;;;;;;;5.82;0.40;;;;;;;;;;5004795;28;20405;-89
2022/11/06 07:38:02;;;;;;;3.30;0.50;;;;;;;;;;5020436;28;20025;-90
2022/11/06 07:40:28;;;;;;;4.75;0.50;;;;;;;;;;5003609;28;20474;-91
2022/11/06 07:42:54;;;;;;;2.08;0.60;;;;;;;;;;5003230;28;20037;-90
2022/11/06 07:45:20;;;;;;;7.03;0.95;;;;;;;;;;5002266;28;20546;-89
2022/11/06 07:47:46;;;;;;;5.38;0.55;;;;;;;;;;5003249;28;20069;-90
2022/11/06 07:50:12;;;;;;;4.65;0.77;;;;;;;;;;5004933;28;20402;-90
2022/11/06 07:52:38;;;;;;;4.30;0.30;;;;;;;;;;5003702;28;20032;-92
2022/11/06 07:55:04;;;;;;;3.58;0.45;;;10.40;99.90;;;;;;5002020;28;20093;-89
2022/11/06 07:57:34;;;;;;;2.40;0.30;;;10.50;99.90;;;;;;5003201;28;20022;-90
2022/11/06 08:00:00;;;;;;;0.93;0.20;;;;;;;;;;5001259;28;20018;-90
2022/11/06 08:02:26;;;;;;;4.97;0.10;;;;;;;;;;5001043;28;20032;-93
2022/11/06 08:05:25;;;;;;;2.80;0.10;;;;;;;;;;5004002;28;20128;-89
2022/11/06 08:07:55;;;;;;;2.00;0.10;;;;;;;;;;4977889;28;20029;-89
2022/11/06 08:10:21;;;;;;;5.13;0.30;;;;;;;;;;5001578;28;20026;-92
2022/11/06 08:12:47;;;;;;;1.75;0.70;;;;;;;;;;5002672;28;20033;-89
2022/11/06 08:15:14;;;;;;;3.80;0.45;;;;;;;;;;5002051;28;20022;-91
2022/11/06 08:17:41;;;;;;;2.95;0.45;;;;;;;;;;5015017;28;20026;-90
2022/11/06 08:20:08;;;;;;;4.65;0.43;;;;;;;;;;5002469;28;20055;-90
2022/11/06 08:22:35;;;;;;;2.30;0.50;;;12.00;99.90;;;;;;5003417;28;20042;-92
2022/11/06 08:25:01;;;;;;;4.93;0.20;;;;;;;;;;5003211;28;20032;-90
2022/11/06 08:27:27;;;;;;;1.63;0.00;;;12.20;99.90;;;;;;5002921;28;20034;-88
2022/11/06 08:29:53;;;;;;;2.92;0.43;;;;;;;;;;5004614;28;20041;-91
2022/11/06 08:32:19;;;;;;;4.95;0.40;;;;;;;;;;5002950;28;20021;-93
2022/11/06 08:34:48;;;;;;;5.18;0.73;;;;;;;;;;5003150;28;20108;-91
2022/11/06 08:37:14;;;;;;;;;;;12.20;99.90;;;;;;5003417;28;20030;-90
2022/11/06 08:39:40;;;;;;;3.00;0.05;;;;;;;;;;5002031;28;19952;-92
2022/11/06 08:42:06;;;;;;;4.85;0.10;;;;;;;;;;5001904;28;20029;-90
2022/11/06 08:44:35;;;;;;;3.67;0.00;;;;;;;;;;5001669;28;20104;-92
2022/11/06 08:47:01;;;;;;;2.63;0.10;;;;;;;;;;5000604;28;20030;-91
2022/11/06 08:49:28;;;;;;;5.13;0.10;;;12.40;99.90;;;;;;5001569;28;20060;-90
2022/11/06 08:52:00;;;;;;;0.85;0.20;;;;;;;;;;5002308;28;20088;-92
2022/11/06 08:54:27;;;;;;;3.25;0.10;;;;;;;;;;5002038;28;20022;-91
2022/11/06 08:56:53;;;;;;;5.15;0.63;;;;;;;;;;5003316;28;20075;-90
2022/11/06 08:59:19;;;;;;;2.92;0.30;;;;;;;;;;5003099;28;20022;-91
2022/11/06 09:01:45;;;;;;;3.05;0.20;;;;;;;;;;5000778;28;20033;-89
2022/11/06 09:04:13;;;;;;;1.55;0.00;;;12.30;99.90;;;;;;5000215;28;20021;-89
2022/11/06 09:09:31;;;;;;;7.07;0.52;;;;;;;;;;4989150;28;20050;-93
2022/11/06 09:11:58;;;;;;;2.35;0.70;;;;;;;;;;5000680;28;20475;-90
2022/11/06 09:14:30;;;;;;;3.10;0.28;;;;;;;;;;5000333;28;20451;-93
2022/11/06 09:16:56;;;;;;;1.13;0.20;;;;;;;;;;5000865;28;20076;-92
2022/11/06 09:19:22;;;;;;;1.27;0.08;;;;;;;;;;5001544;28;20030;-91
2022/11/06 09:21:48;;;;;;;1.83;0.00;;;;;;;;;;5000876;28;20041;-90
2022/11/06 09:24:14;;;;;;;2.05;0.00;;;;;;;;;;5000682;28;20025;-90
2022/11/06 09:26:40;;;;;;;0.85;0.00;;;;;;;;;;5000350;28;20109;-90
2022/11/06 09:29:06;;;;;;;2.70;0.10;;;;;;;;;;5001773;28;20025;-89
2022/11/06 09:31:32;;;;;;;2.88;0.00;;;;;;;;;;5000798;28;20089;-91
2022/11/06 09:33:58;;;;;;;0.30;0.00;;;;;;;;;;5002434;28;20022;-91
2022/11/06 09:36:24;;;;;;;5.47;0.17;;;;;;;;;;5001242;28;20391;-91
2022/11/06 09:38:53;;;;;;;4.22;0.20;;;;;;;;;;5001760;28;20026;-91
2022/11/06 09:41:42;;;;;;;1.45;0.10;;;13.10;99.90;;;;;;5001795;28;20034;-89
2022/11/06 09:44:08;;;;;;;1.02;0.00;;;;;;;;;;4999816;28;20121;-90
2022/11/06 09:46:44;;;;;;;1.35;0.22;;;13.10;99.90;;;;;;4999687;28;20096;-90
2022/11/06 09:49:48;;;;;;;2.95;0.38;;;13.20;99.90;;;;;;5000917;28;20116;-90
2022/11/06 09:52:43;;;;;;;3.90;0.10;;;13.20;99.90;;;;;;5000450;28;20101;-91
2022/11/06 09:55:12;;;;;;;1.20;0.45;;;;;;;;;;4987500;28;20034;-94
2022/11/06 09:57:42;;;;;;;0.82;0.00;;;;;;;;;;5000214;28;20065;-93
2022/11/06 10:00:13;;;;;;;6.75;0.70;;;13.20;99.90;;;;;;4998966;28;20391;-90
2022/11/06 10:02:42;;;;;;;1.58;0.00;;;;;;;;;;4998895;28;20029;-86
2022/11/06 10:05:11;;;;;;;1.98;0.10;;;13.00;99.90;;;;;;4999187;28;20025;-89
2022/11/06 10:07:44;;;;;;;6.50;0.17;;;12.90;99.90;;;;;;4999351;28;20080;-92
2022/11/06 10:10:19;;;;;;;2.38;0.30;;;12.80;99.90;;;;;;5001081;28;20022;-92
2022/11/06 10:13:10;;;;;;;1.20;0.17;;;12.70;99.90;;;;;;5000469;28;20079;-94
2022/11/06 10:15:44;;;;;;;3.35;0.10;;;12.60;99.90;;;;;;5000194;28;20101;-93
2022/11/06 10:18:24;;;;;;;2.30;0.00;;;;;;;;;;5002953;28;20025;-93
2022/11/06 10:21:20;;;;;;;2.85;0.25;;;;;;;;;;5001702;28;20099;-92
2022/11/06 10:24:04;;;;;;;1.20;0.15;;;12.50;99.90;;;;;;5002018;28;20042;-93
2022/11/06 10:26:40;;;;;;;3.28;0.10;;;12.50;99.90;;;;;;5002514;28;20032;-92
2022/11/06 10:29:30;;;;;;;5.15;0.20;;;12.60;99.90;;;;;;5002527;28;20422;-90
2022/11/06 10:32:38;;;;;;;1.38;0.32;;;12.50;99.90;;;;;;5001523;28;20088;-94
2022/11/06 10:35:33;;;;;;;1.38;0.00;;;12.50;99.90;;;;;;5002152;28;20399;-94
2022/11/06 10:38:02;;;;;;;2.47;0.43;;;;;;;;;;4995798;28;20026;-95
2022/11/06 10:40:33;;;;;;;3.72;0.30;;;;;;;;;;5002010;28;20030;-93
2022/11/06 10:43:03;;;;;;;2.53;0.00;;;;;;;;;;5001885;28;20109;-92
2022/11/06 10:45:33;;;;;;;0.43;0.00;;;;;;;;;;5002159;28;20125;-93
2022/11/06 10:48:31;;;;;;;4.95;0.00;;;12.50;99.90;;;;;;5012628;28;20034;-92
2022/11/06 10:51:09;;;;;;;1.45;0.10;;;;;;;;;;5016581;28;20049;-92
2022/11/06 10:54:02;;;;;;;4.65;0.00;;;12.60;99.90;;;;;;5017728;28;20028;-92
2022/11/06 10:57:07;;;;;;;2.70;0.00;;;12.60;99.90;;;;;;5006345;28;20026;-92
2022/11/06 10:59:35;;;;;;;2.20;0.00;;;;;;;;;;4977344;28;20550;-88
2022/11/06 11:02:02;;;;;;;2.22;0.00;;;;;;;;;;4980947;28;20038;-92
2022/11/06 11:04:30;;;;;;;1.30;0.30;;;;;;;;;;4981488;28;20109;-87
2022/11/06 11:07:14;;;;;;;0.93;0.10;;;12.60;99.90;;;;;;4982497;28;20113;-90
2022/11/06 11:09:44;;;;;;;2.28;0.10;;;;;;;;;;4985284;28;20027;-90
2022/11/06 11:12:39;;;;;;;1.80;0.30;;;12.50;99.90;;;;;;4984481;28;20038;-91
2022/11/06 11:15:08;;;;;;;5.15;0.05;;;;;;;;;;4964456;28;20026;-90
2022/11/06 11:17:34;;;;;;;3.17;0.57;;;;;;;;;;4987004;28;20399;-91
2022/11/06 11:20:01;;;;;;;3.17;0.20;;;;;;;;;;5004576;28;20026;-91
2022/11/06 11:22:27;;;;;;;3.17;0.00;;;;;;;;;;5003614;28;20509;-89
2022/11/06 11:25:07;;;;;;;2.15;0.10;;;12.60;99.90;;;;;;5004183;28;20029;-93
2022/11/06 11:27:43;;;;;;;2.38;0.00;;;12.50;99.90;;;;;;5000960;28;20105;-89
2022/11/06 11:30:25;;;;;;;1.30;0.38;;;12.50;99.90;;;;;;4983845;28;20426;-89
2022/11/06 11:32:51;;;;;;;0.70;0.00;;;;;;;;;;4984117;28;20034;-90
2022/11/06 11:35:25;;;;;;;7.07;1.08;;;12.50;99.90;;;;;;4986474;28;20026;-90
2022/11/06 11:38:08;;;;;;;1.65;0.22;;;12.50;99.90;;;;;;5002045;28;20558;-91
2022/11/06 11:40:36;;;;;;;1.30;0.00;;;12.50;99.90;;;;;;5001500;28;20058;-90
2022/11/06 11:43:20;;;;;;;3.70;0.00;;;;;;;;;;5002379;28;20030;-93
2022/11/06 11:46:02;;;;;;;2.63;0.30;;;;;;;;;;5002157;28;20036;-90
2022/11/06 11:48:40;;;;;;;1.55;0.20;;;12.40;99.90;;;;;;5003055;28;20026;-91
2022/11/06 11:51:21;;;;;;;6.80;0.00;;;12.40;99.90;;;;;;5003356;28;20026;-91
2022/11/06 11:53:47;;;;;;;2.67;0.00;;;;;;;;;;5002151;28;20549;-91
2022/11/06 11:56:18;;;;;;;1.23;0.10;;;12.40;99.90;;;;;;5000939;28;20391;-93
2022/11/06 11:58:56;;;;;;;4.75;0.00;;;;;;;;;;5001585;28;20473;-88
2022/11/06 12:01:51;;;;;;;0.47;0.25;;;12.40;99.90;;;;;;5002075;28;20076;-90
2022/11/06 12:04:29;;;;;;;1.98;0.45;;;12.40;99.90;;;;;;4917469;28;20068;-93
2022/11/06 12:07:14;;;;;;;2.33;0.00;;;12.40;99.90;;;;;;5004216;28;20030;-89
2022/11/06 12:09:43;;;;;;;1.13;0.00;;;12.50;99.90;;;;;;5002582;28;20032;-91
2022/11/06 12:12:30;;;;;;;5.57;0.25;;;12.50;99.90;;;;;;5001918;28;20053;-91
2022/11/06 12:15:19;;;;;;;3.05;0.00;;;12.60;99.90;;;;;;5003799;28;20065;-90
2022/11/06 12:18:15;;;;;;;4.63;0.20;;;12.60;99.90;;;;;;5000846;28;20021;-89
2022/11/06 12:20:51;;;;;;;1.25;0.00;;;12.60;99.90;;;;;;5010550;28;20056;-90
2022/11/06 12:23:36;;;;;;;6.25;0.20;;;12.70;99.90;;;;;;5001329;28;20041;-91
2022/11/06 12:26:05;;;;;;;1.10;0.00;;;;;;;;;;5003195;28;20056;-89
2022/11/06 12:28:36;;;;;;;1.98;0.10;;;12.70;99.90;;;;;;5003454;28;20471;-89
2022/11/06 12:31:22;;;;;;;5.13;1.27;;;12.70;99.90;;;;;;5002679;28;20033;-92
2022/11/06 12:33:48;;;;;;;4.20;0.85;;;;;;;;;;5001969;28;20022;-92
2022/11/06 12:36:17;;;;;;;2.05;0.10;;;;;;;;;;5003050;28;20022;-87
2022/11/06 12:39:05;;;;;;;4.07;0.15;;;12.60;99.90;;;;;;5002857;28;20117;-89
2022/11/06 12:41:37;;;;;;;1.48;0.10;;;12.60;99.90;;;;;;5002404;28;20026;-91
2022/11/06 12:44:03;;;;;;;3.10;0.10;;;;;;;;;;5019404;28;20026;-90
2022/11/06 12:47:06;;;;;;;0.25;0.08;;;12.60;99.90;;;;;;5002296;28;20104;-93
2022/11/06 12:50:13;;;;;;;0.35;0.00;;;12.60;99.90;;;;;;5000502;28;20072;-89
2022/11/06 12:53:04;;;;;;;2.85;0.20;;;12.60;99.90;;;;;;5017551;28;20034;-90
2022/11/06 12:55:39;;;;;;;4.30;0.05;;;12.60;99.90;;;;;;5001001;28;20026;-88
2022/11/06 12:58:25;;;;;;;0.75;0.00;;;12.60;99.90;;;;;;5000263;28;20461;-90
2022/11/06 13:01:07;;;;;;;3.67;0.10;;;12.60;99.90;;;;;;5001724;28;20096;-88
2022/11/06 13:03:53;;;;;;;3.60;0.10;;;;;;;;;;5004209;28;20113;-91
2022/11/06 13:07:03;;;;;;;2.40;0.03;;;;;;;;;;5008598;28;20060;-93
2022/11/06 13:10:17;;;;;;;2.20;0.10;;;12.50;99.90;;;;;;4919724;28;20115;-94
2022/11/06 13:13:06;;;;;;;1.70;0.25;;;12.40;99.90;;;;;;5000972;28;20052;-91
2022/11/06 13:15:36;;;;;;;1.35;0.00;;;;;;;;;;5003837;28;20053;-93
2022/11/06 13:18:13;;;;;;;3.30;0.00;;;;;;;;;;5000399;28;20041;-90
2022/11/06 13:20:42;;;;;;;2.95;0.00;;;;;;;;;;5001238;28;20034;-88
2022/11/06 13:23:50;;;;;;;3.65;0.10;;;12.10;99.90;;;;;;5000602;28;20033;-91
2022/11/06 13:26:22;;;;;;;2.75;0.38;;;;;;;;;;5001199;28;20053;-90
2022/11/06 13:28:55;;;;;;;5.13;0.22;;;12.00;99.90;;;;;;5003577;28;20033;-94
2022/11/06 13:31:47;;;;;;;5.00;0.43;;;11.90;99.90;;;;;;5017698;28;20034;-93
2022/11/06 13:34:30;;;;;;;2.17;0.30;;;11.80;99.90;;;;;;5010597;28;20018;-91
2022/11/06 13:37:06;;;;;;;9.23;0.55;;;;;;;;;;5013541;28;20026;-91
2022/11/06 13:39:46;;;;;;;1.88;0.15;;;;;;;;;;5019227;28;20041;-90
2022/11/06 13:42:24;;;;;;;5.93;0.10;;;;;;;;;;5019452;28;20037;-90
2022/11/06 13:44:54;;;;;;;3.63;0.05;;;11.30;99.90;;;;;;5017157;28;20014;-91
2022/11/06 13:47:20;;;;;;;6.70;0.55;;;;;;;;;;5019689;28;20034;-92
2022/11/06 13:50:12;;;;;;;1.98;0.10;;;;;;;;;;5006077;28;20073;-93
2022/11/06 13:52:42;;;;;;;1.85;0.10;;;;;;;;;;4966840;28;20052;-90
2022/11/06 13:55:20;;;;;;;2.63;0.08;;;;;;;;;;5018048;28;20117;-89
2022/11/06 13:58:18;;;;;;;;;;;11.00;99.90;;;;;;5002385;28;20426;-90
2022/11/06 14:00:44;;;;;;;4.18;0.00;;;;;;;;;;4988722;28;19984;-91
2022/11/06 14:03:13;;;;;;;3.80;0.52;;;;;;;;;;5000643;28;20053;-91
2022/11/06 14:05:42;;;;;;;4.78;0.40;;;;;;;;;;5018650;28;20062;-89
2022/11/06 14:08:34;;;;;;;2.95;0.43;;;10.70;99.90;;;;;;5001674;28;20046;-89
2022/11/06 14:11:18;;;;;;;1.45;0.00;;;10.70;99.90;;;;;;4999168;28;20061;-89
2022/11/06 14:14:05;;;;;;;5.13;0.10;;;10.60;99.90;;;;;;5002710;28;20056;-92
2022/11/06 14:16:38;;;;;;;0.45;0.00;;;10.60;99.90;;;;;;5002545;28;20022;-88
2022/11/06 14:19:10;;;;;;;8.55;0.45;;;10.50;99.90;;;;;;4999762;28;20502;-91
2022/11/06 14:21:39;;;;;;;2.13;0.05;;;;;;;;;;4999015;28;20061;-86
2022/11/06 14:24:16;;;;;;;;;;;10.50;99.90;;;;;;4999766;28;20112;-91
2022/11/06 14:26:47;;;;;;;1.30;0.00;;;10.40;99.90;;;;;;4998798;28;19916;-87
2022/11/06 14:29:26;;;;;;;8.30;0.68;;;;;;;;;;4998821;28;20080;-87
2022/11/06 14:32:23;;;;;;;4.85;0.00;;;10.40;99.90;;;;;;4998306;28;20029;-87
2022/11/06 14:34:49;;;;;;;7.93;0.52;;;10.30;99.90;;;;;;5016129;28;20022;-87
2022/11/06 14:37:17;;;;;;;4.68;0.57;;;10.30;99.90;;;;;;4998201;28;20022;-86
2022/11/06 14:39:55;;;;;;;2.78;0.38;;;10.20;99.90;;;;;;4998442;28;20026;-87
2022/11/06 14:42:22;;;;;;;2.42;0.10;;;;;;;;;;4998167;28;20088;-88